Time;durP1;ratioP1;P1;durP2;ratioP2;P2;SDS_P1;SDS_P2;PMS_P1;PMS_P2;Temp;Humidity;BMP_temperature;BMP_pressure;BME280_temperature;BME280_humidity;BME280_pressure;Samples;Min_cycle;Max_cycle;Signal;HPM_P1;HPM_P2
2023/07/14 00:01:42;;;;;;;3.17;1.08;;;;;;;;;;5070755;28;20044;-77
2023/07/14 00:04:14;;;;;;;3.95;1.10;;;;;;;;;;5070492;28;20053;-78
2023/07/14 00:06:41;;;;;;;1.13;0.73;;;;;;;;;;5068260;28;20531;-78
2023/07/14 00:09:34;;;;;;;1.80;1.00;;;;;;;;;;5070400;28;20082;-79
2023/07/14 00:12:01;;;;;;;3.65;1.00;;;;;;;;;;5067175;28;20045;-78
2023/07/14 00:14:28;;;;;;;2.70;1.25;;;;;;;;;;5070539;28;20131;-78
2023/07/14 00:16:56;;;;;;;5.75;1.05;;;;;;;;;;5070404;28;20060;-78
2023/07/14 00:19:26;;;;;;;2.17;0.80;;;;;;;;;;5070968;28;20054;-77
2023/07/14 00:21:53;;;;;;;1.25;0.80;;;;;;;;;;5070575;28;20041;-79
2023/07/14 00:24:23;;;;;;;1.75;0.82;;;;;;;;;;5070736;28;20094;-78
2023/07/14 00:26:58;;;;;;;1.45;0.73;;;;;;;;;;5070632;28;20080;-78
2023/07/14 00:29:25;;;;;;;1.20;0.70;;;;;;;;;;5070788;28;20048;-78
2023/07/14 00:31:52;;;;;;;1.55;1.00;;;;;;;;;;5070388;28;20504;-78
2023/07/14 00:34:19;;;;;;;2.00;1.08;;;;;;;;;;5070968;28;20140;-77
2023/07/14 00:36:45;;;;;;;1.10;0.80;;;;;;;;;;5070578;28;20456;-78
2023/07/14 00:39:12;;;;;;;1.55;0.93;;;;;;;;;;5070098;28;20040;-78
2023/07/14 00:41:39;;;;;;;2.00;0.90;;;;;;;;;;5069658;28;20522;-79
2023/07/14 00:44:11;;;;;;;2.50;1.00;;;;;;;;;;5069640;28;20048;-77
2023/07/14 00:46:38;;;;;;;3.08;1.10;;;;;;;;;;5067590;28;20044;-78
2023/07/14 00:49:13;;;;;;;2.65;1.20;;;;;;;;;;5069301;28;20044;-76
2023/07/14 00:51:40;;;;;;;2.15;1.00;;;;;;;;;;5067924;28;20051;-78
2023/07/14 00:54:22;;;;;;;2.65;1.13;;;;;;;;;;5069322;28;20119;-79
2023/07/14 00:56:50;;;;;;;1.35;0.90;;;;;;;;;;5071139;28;20055;-79
2023/07/14 00:59:17;;;;;;;1.75;1.08;;;;;;;;;;5069865;28;20044;-80
2023/07/14 01:02:09;;;;;;;2.15;1.13;;;;;;;;;;5069260;28;20500;-80
2023/07/14 01:04:41;;;;;;;1.92;1.00;;;;;;;;;;5066839;28;20052;-79
2023/07/14 01:07:10;;;;;;;2.83;1.02;;;;;;;;;;5068747;28;20047;-79
2023/07/14 01:09:38;;;;;;;2.90;0.68;;;;;;;;;;5067579;28;20809;-79
2023/07/14 01:12:07;;;;;;;1.85;0.80;;;;;;;;;;5069815;28;20048;-77
2023/07/14 01:14:40;;;;;;;2.33;0.90;;;;;;;;;;5070223;28;20056;-79
2023/07/14 01:17:07;;;;;;;1.63;0.93;;;;;;;;;;5069772;28;20044;-77
2023/07/14 01:20:00;;;;;;;1.33;0.80;;;;;;;;;;5069955;28;20076;-79
2023/07/14 01:23:12;;;;;;;1.00;0.80;;;;;;;;;;5070352;28;20040;-78
2023/07/14 01:26:13;;;;;;;1.40;0.80;;;;;;;;;;5026716;28;20422;-79
2023/07/14 01:28:41;;;;;;;1.30;0.77;;;;;;;;;;5069462;28;20746;-79
2023/07/14 01:31:20;;;;;;;1.73;0.80;;;;;;;;;;5069206;28;20048;-79
2023/07/14 01:33:47;;;;;;;1.50;0.82;;;;;;;;;;5069600;28;20048;-77
2023/07/14 01:36:13;;;;;;;2.08;0.82;;;;;;;;;;5068617;28;20049;-78
2023/07/14 01:38:40;;;;;;;0.85;0.60;;;;;;;;;;5068672;28;20059;-78
2023/07/14 01:41:07;;;;;;;0.68;0.68;;;;;;;;;;5068781;28;20055;-79
2023/07/14 01:43:36;;;;;;;1.48;0.98;;;;;;;;;;5068577;28;20047;-78
2023/07/14 01:46:07;;;;;;;1.92;1.00;;;;;;;;;;5068435;28;20178;-79
2023/07/14 01:48:48;;;;;;;1.10;0.63;;;;;;;;;;5067268;28;20504;-78
2023/07/14 01:51:15;;;;;;;2.47;0.95;;;;;;;;;;5068255;28;20078;-79
2023/07/14 01:53:46;;;;;;;1.80;0.90;;;;;;;;;;5068491;28;20052;-79
2023/07/14 01:56:17;;;;;;;2.90;0.88;;;;;;;;;;5068770;28;20083;-79
2023/07/14 01:59:10;;;;;;;2.35;0.63;;;;;;;;;;5067344;28;20052;-79
2023/07/14 02:01:41;;;;;;;1.02;0.80;;;;;;;;;;5062904;28;20060;-73
2023/07/14 02:04:16;;;;;;;1.20;0.75;;;;;;;;;;5068032;28;20102;-78
2023/07/14 02:06:43;;;;;;;1.20;0.73;;;;;;;;;;5066738;28;20110;-79
2023/07/14 02:09:17;;;;;;;1.00;0.80;;;;;;;;;;5068297;28;20127;-78
2023/07/14 02:11:50;;;;;;;1.83;0.95;;;;;;;;;;5066605;28;20501;-79
2023/07/14 02:14:18;;;;;;;1.35;0.80;;;;;;;;;;5065803;28;20122;-74
2023/07/14 02:16:46;;;;;;;1.45;0.77;;;;;;;;;;5068432;28;20049;-79
2023/07/14 02:19:21;;;;;;;2.40;1.00;;;;;;;;;;5068296;28;20045;-78
2023/07/14 02:21:49;;;;;;;1.92;0.80;;;;;;;;;;5068026;28;20056;-79
2023/07/14 02:24:22;;;;;;;1.42;1.00;;;;;;;;;;5068398;28;20071;-78
2023/07/14 02:26:55;;;;;;;1.45;0.88;;;;;;;;;;5068184;28;20041;-79
2023/07/14 02:29:22;;;;;;;1.42;0.75;;;;;;;;;;5068944;28;20044;-78
2023/07/14 02:31:55;;;;;;;1.00;0.80;;;;;;;;;;5068649;28;20056;-79
2023/07/14 02:34:26;;;;;;;2.53;0.90;;;;;;;;;;5068890;28;20055;-79
2023/07/14 02:37:01;;;;;;;1.95;0.90;;;;;;;;;;5068322;28;20498;-78
2023/07/14 02:39:35;;;;;;;1.15;0.82;;;;;;;;;;5068692;28;20056;-79
2023/07/14 02:42:03;;;;;;;2.05;1.00;;;;;;;;;;5067918;28;20059;-78
2023/07/14 02:44:37;;;;;;;3.83;0.80;;;;;;;;;;5068230;28;20050;-77
2023/07/14 02:47:15;;;;;;;1.17;0.77;;;;;;;;;;5068409;28;20056;-78
2023/07/14 02:49:42;;;;;;;1.42;0.80;;;;;;;;;;5068609;28;20052;-77
2023/07/14 02:52:09;;;;;;;2.17;0.90;;;;;;;;;;5068042;28;20048;-78
2023/07/14 02:54:37;;;;;;;1.45;0.90;;;;;;;;;;5068526;28;20102;-79
2023/07/14 02:57:04;;;;;;;1.92;0.95;;;;;;;;;;5068030;28;20519;-76
2023/07/14 02:59:31;;;;;;;1.25;0.95;;;;;;;;;;5068346;28;20072;-79
2023/07/14 03:01:59;;;;;;;1.52;0.88;;;;;;;;;;5068832;28;20059;-79
2023/07/14 03:04:25;;;;;;;1.95;1.00;;;;;;;;;;5068060;28;20060;-79
2023/07/14 03:06:52;;;;;;;0.73;0.68;;;;;;;;;;5068090;28;20044;-79
2023/07/14 03:09:19;;;;;;;1.33;0.90;;;;;;;;;;5068201;28;20048;-78
2023/07/14 03:11:46;;;;;;;1.30;0.80;;;;;;;;;;5070780;28;20040;-77
2023/07/14 03:14:15;;;;;;;2.10;0.88;;;;;;;;;;5072020;28;20049;-79
2023/07/14 03:16:42;;;;;;;1.30;0.77;;;;;;;;;;5071946;28;20048;-78
2023/07/14 03:19:09;;;;;;;1.65;0.75;;;;;;;;;;5071970;28;20106;-79
2023/07/14 03:21:36;;;;;;;1.60;0.98;;;;;;;;;;5071740;28;20872;-77
2023/07/14 03:24:02;;;;;;;1.33;0.80;;;;;;;;;;5071603;28;20048;-78
2023/07/14 03:26:29;;;;;;;1.65;0.90;;;;;;;;;;5071833;28;20044;-77
2023/07/14 03:28:56;;;;;;;1.38;0.70;;;;;;;;;;5071654;28;20056;-75
2023/07/14 03:31:23;;;;;;;0.93;0.73;;;;;;;;;;5072064;28;20044;-73
2023/07/14 03:33:52;;;;;;;1.40;0.90;;;;;;;;;;5071129;28;20055;-78
2023/07/14 03:36:23;;;;;;;1.48;0.85;;;;;;;;;;5071358;28;20045;-77
2023/07/14 03:39:24;;;;;;;1.65;0.82;;;;;;;;;;5071231;28;20516;-78
2023/07/14 03:41:53;;;;;;;1.10;0.70;;;;;;;;;;5071899;28;20044;-78
2023/07/14 03:44:20;;;;;;;2.35;0.93;;;;;;;;;;5071483;28;20049;-78
2023/07/14 03:46:47;;;;;;;1.23;0.82;;;;;;;;;;5071422;28;20045;-77
2023/07/14 03:49:14;;;;;;;1.27;0.70;;;;;;;;;;5071144;28;20056;-77
2023/07/14 03:51:42;;;;;;;1.60;0.90;;;;;;;;;;5071042;28;20048;-76
2023/07/14 03:54:10;;;;;;;1.40;0.82;;;;;;;;;;5070653;28;20397;-77
2023/07/14 03:56:37;;;;;;;0.88;0.70;;;;;;;;;;5071125;28;20075;-78
2023/07/14 03:59:04;;;;;;;1.77;0.93;;;;;;;;;;5071111;28;20040;-78
2023/07/14 04:01:31;;;;;;;1.10;0.80;;;;;;;;;;5071335;28;20465;-78
2023/07/14 04:03:57;;;;;;;0.77;0.60;;;;;;;;;;5069204;28;20114;-77
2023/07/14 04:06:28;;;;;;;2.30;0.85;;;;;;;;;;5071484;28;20055;-78
2023/07/14 04:08:58;;;;;;;2.47;0.80;;;;;;;;;;5070501;28;20041;-78
2023/07/14 04:11:25;;;;;;;1.10;0.93;;;;;;;;;;5070936;28;20492;-78
2023/07/14 04:13:51;;;;;;;0.77;0.60;;;;;;;;;;5070879;28;20053;-79
2023/07/14 04:16:18;;;;;;;1.70;0.88;;;;;;;;;;5071026;28;20044;-78
2023/07/14 04:18:45;;;;;;;1.30;0.77;;;;;;;;;;5070824;28;20099;-78
2023/07/14 04:21:13;;;;;;;3.03;0.77;;;;;;;;;;5071169;28;20048;-79
2023/07/14 04:23:41;;;;;;;1.67;0.80;;;;;;;;;;5069325;28;20088;-76
2023/07/14 04:26:08;;;;;;;0.65;0.60;;;;;;;;;;5070920;28;20048;-78
2023/07/14 04:28:35;;;;;;;1.38;0.80;;;;;;;;;;5070625;28;20045;-79
2023/07/14 04:31:02;;;;;;;1.35;0.65;;;;;;;;;;5070658;28;20408;-79
2023/07/14 04:33:29;;;;;;;2.20;0.80;;;;;;;;;;5070576;28;20051;-78
2023/07/14 04:35:57;;;;;;;2.45;0.80;;;;;;;;;;5071021;28;20059;-77
2023/07/14 04:38:24;;;;;;;1.30;0.75;;;;;;;;;;5070421;28;20052;-79
2023/07/14 04:40:51;;;;;;;2.83;0.80;;;;;;;;;;5070490;28;20041;-78
2023/07/14 04:43:20;;;;;;;0.95;0.77;;;;;;;;;;5070313;28;20045;-79
2023/07/14 04:45:49;;;;;;;1.58;0.82;;;;;;;;;;5070280;28;20614;-78
2023/07/14 04:48:24;;;;;;;1.35;0.82;;;;;;;;;;5070183;28;20124;-77
2023/07/14 04:50:51;;;;;;;2.78;0.60;;;;;;;;;;5070311;28;20045;-78
2023/07/14 04:53:21;;;;;;;1.33;0.80;;;;;;;;;;5069549;28;20056;-78
2023/07/14 04:55:48;;;;;;;1.03;0.83;;;;;;;;;;5070278;28;20048;-79
2023/07/14 04:58:17;;;;;;;3.17;0.80;;;;;;;;;;5068707;28;20378;-78
2023/07/14 05:00:46;;;;;;;1.92;1.02;;;;;;;;;;5070278;28;20089;-79
2023/07/14 05:03:13;;;;;;;1.70;0.70;;;;;;;;;;5069713;28;20056;-78
2023/07/14 05:05:40;;;;;;;2.65;0.80;;;;;;;;;;5070477;28;20103;-78
2023/07/14 05:08:07;;;;;;;2.88;0.88;;;;;;;;;;5069917;28;20043;-78
2023/07/14 05:10:37;;;;;;;1.65;0.90;;;;;;;;;;5069873;28;20431;-79
2023/07/14 05:13:06;;;;;;;1.35;0.70;;;;;;;;;;5070114;28;20045;-78
2023/07/14 05:15:33;;;;;;;1.10;0.60;;;;;;;;;;5069717;28;20107;-78
2023/07/14 05:18:00;;;;;;;0.98;0.70;;;;;;;;;;5069725;28;20106;-79
2023/07/14 05:20:28;;;;;;;1.35;0.70;;;;;;;;;;5069363;28;20612;-78
2023/07/14 05:22:55;;;;;;;1.17;0.70;;;;;;;;;;5069263;28;20048;-77
2023/07/14 05:25:23;;;;;;;1.55;0.70;;;;;;;;;;5069347;28;20048;-74
2023/07/14 05:27:49;;;;;;;2.00;0.60;;;;;;;;;;5070053;28;20120;-78
2023/07/14 05:30:20;;;;;;;2.28;0.90;;;;;;;;;;5069298;28;20500;-78
2023/07/14 05:32:49;;;;;;;1.10;0.70;;;;;;;;;;5068602;28;20045;-79
2023/07/14 05:35:17;;;;;;;1.35;0.60;;;;;;;;;;5068956;28;20610;-78
2023/07/14 05:37:44;;;;;;;1.92;0.70;;;;;;;;;;5069192;28;20044;-78
2023/07/14 05:40:13;;;;;;;0.70;0.50;;;;;;;;;;5067830;28;20044;-77
2023/07/14 05:42:41;;;;;;;3.65;0.60;;;;;;;;;;5069369;28;20125;-75
2023/07/14 05:45:09;;;;;;;0.85;0.63;;;;;;;;;;5069395;28;20051;-78
2023/07/14 05:47:40;;;;;;;0.82;0.60;;;;;;;;;;5069228;28;20048;-76
2023/07/14 05:50:07;;;;;;;;;;;;;;;;;;5068595;28;20045;-78
2023/07/14 05:52:34;;;;;;;1.10;0.70;;;;;;;;;;5069143;28;19920;-78
2023/07/14 05:55:05;;;;;;;1.02;0.70;;;;;;;;;;5069794;28;20111;-75
2023/07/14 05:57:32;;;;;;;0.60;0.52;;;;;;;;;;5072155;28;20048;-77
2023/07/14 05:59:59;;;;;;;0.50;0.50;;;;;;;;;;5080441;28;20051;-78
2023/07/14 06:02:26;;;;;;;0.85;0.60;;;;;;;;;;5080534;28;20047;-80
2023/07/14 06:04:53;;;;;;;1.70;0.77;;;;;;;;;;5071725;28;20060;-75
2023/07/14 06:07:20;;;;;;;1.23;0.73;;;;;;;;;;5076839;28;20051;-75
2023/07/14 06:09:47;;;;;;;1.20;0.70;;;;;;;;;;5061062;28;20051;-74
2023/07/14 06:12:14;;;;;;;0.55;0.52;;;;;;;;;;5059667;28;20045;-75
2023/07/14 06:14:41;;;;;;;1.17;0.80;;;;;;;;;;5059234;28;20300;-76
2023/07/14 06:17:08;;;;;;;0.95;0.70;;;;;;;;;;5060297;28;20303;-75
2023/07/14 06:19:37;;;;;;;2.50;0.90;;;;;;;;;;5059811;28;20120;-74
2023/07/14 06:22:06;;;;;;;1.73;0.75;;;;;;;;;;5059200;28;20343;-76
2023/07/14 06:24:37;;;;;;;1.42;0.70;;;;;;;;;;5059901;28;20045;-75
2023/07/14 06:27:05;;;;;;;1.77;0.80;;;;;;;;;;5060581;28;20104;-74
2023/07/14 06:29:36;;;;;;;2.13;0.82;;;;;;;;;;5059882;28;20052;-74
2023/07/14 06:32:03;;;;;;;0.63;0.63;;;;;;;;;;5056934;28;20108;-75
2023/07/14 06:34:30;;;;;;;1.42;0.75;;;;;;;;;;5065263;28;20049;-72
2023/07/14 06:36:57;;;;;;;3.72;0.80;;;;;;;;;;5075869;28;20075;-74
2023/07/14 06:39:24;;;;;;;5.28;1.10;;;;;;;;;;5060164;28;20045;-74
2023/07/14 06:41:51;;;;;;;3.45;1.10;;;;;;;;;;5069136;28;20052;-73
2023/07/14 06:44:18;;;;;;;1.13;0.73;;;;;;;;;;5079768;28;20368;-74
2023/07/14 06:46:52;;;;;;;1.70;0.80;;;;;;;;;;5082955;28;20071;-74
2023/07/14 06:49:19;;;;;;;1.83;0.98;;;;;;;;;;5083711;28;20044;-73
2023/07/14 06:51:50;;;;;;;2.25;0.82;;;;;;;;;;5063997;28;20269;-74
2023/07/14 06:54:17;;;;;;;2.20;1.10;;;;;;;;;;5063115;28;20435;-75
2023/07/14 06:56:44;;;;;;;1.30;0.80;;;;;;;;;;5063506;28;20329;-73
2023/07/14 06:59:11;;;;;;;2.15;0.98;;;;;;;;;;5064181;28;20136;-72
2023/07/14 07:01:38;;;;;;;1.08;0.90;;;;;;;;;;5063311;28;20049;-75
2023/07/14 07:04:05;;;;;;;1.45;0.85;;;;;;;;;;5062572;28;20080;-74
2023/07/14 07:06:32;;;;;;;0.93;0.73;;;;;;;;;;5062869;28;20080;-74
2023/07/14 07:08:58;;;;;;;1.75;0.95;;;;;;;;;;5061462;28;20045;-74
2023/07/14 07:11:25;;;;;;;1.73;0.90;;;;;;;;;;5061668;28;20128;-83
2023/07/14 07:13:52;;;;;;;1.27;0.80;;;;;;;;;;5060845;28;20075;-76
2023/07/14 07:16:19;;;;;;;2.28;0.70;;;;;;;;;;5062240;28;20041;-75
2023/07/14 07:18:45;;;;;;;0.90;0.80;;;;;;;;;;5062379;28;20044;-77
2023/07/14 07:21:12;;;;;;;1.30;0.90;;;;;;;;;;5062012;28;20048;-77
2023/07/14 07:23:39;;;;;;;5.50;0.93;;;;;;;;;;5063151;28;20049;-76
2023/07/14 07:26:07;;;;;;;1.00;0.80;;;;;;;;;;5063138;28;20143;-76
2023/07/14 07:28:34;;;;;;;1.45;0.90;;;;;;;;;;5063650;28;20052;-75
2023/07/14 07:31:10;;;;;;;1.40;0.80;;;;;;;;;;5063525;28;20045;-77
2023/07/14 07:33:38;;;;;;;2.53;0.90;;;;;;;;;;5063518;28;20045;-75
2023/07/14 07:36:14;;;;;;;1.77;0.90;;;;;;;;;;5063261;28;20052;-77
2023/07/14 07:38:43;;;;;;;2.85;0.85;;;;;;;;;;5062899;28;20475;-75
2023/07/14 07:41:12;;;;;;;1.38;0.75;;;;;;;;;;5063099;28;20045;-76
2023/07/14 07:43:39;;;;;;;1.02;0.70;;;;;;;;;;5062544;28;20416;-77
2023/07/14 07:46:06;;;;;;;1.67;0.60;;;;;;;;;;5062935;28;20496;-77
2023/07/14 07:48:34;;;;;;;1.23;0.80;;;;;;;;;;5078269;28;20051;-78
2023/07/14 07:51:01;;;;;;;1.13;0.65;;;;;;;;;;5062363;28;20108;-76
2023/07/14 07:53:27;;;;;;;0.90;0.75;;;;;;;;;;5062687;28;20214;-77
2023/07/14 07:55:56;;;;;;;1.00;0.90;;;;;;;;;;5061918;28;20333;-74
2023/07/14 07:58:24;;;;;;;2.42;0.77;;;;;;;;;;5068186;28;20041;-76
2023/07/14 08:00:56;;;;;;;1.83;0.90;;;;;;;;;;5079299;28;20044;-76
2023/07/14 08:03:22;;;;;;;1.10;0.75;;;;;;;;;;5062518;28;20069;-76
2023/07/14 08:05:50;;;;;;;1.40;0.82;;;;;;;;;;5062481;28;20225;-77
2023/07/14 08:08:16;;;;;;;1.00;0.70;;;;;;;;;;5062222;28;20044;-76
2023/07/14 08:10:45;;;;;;;2.78;0.95;;;;;;;;;;5062784;28;20108;-77
2023/07/14 08:13:14;;;;;;;1.05;0.70;;;;;;;;;;5062482;28;20048;-76
2023/07/14 08:15:41;;;;;;;3.50;0.93;;;;;;;;;;5062181;28;20143;-78
2023/07/14 08:18:07;;;;;;;1.70;0.80;;;;;;;;;;5062606;28;20082;-77
2023/07/14 08:20:38;;;;;;;1.15;0.82;;;;;;;;;;5062221;28;20352;-76
2023/07/14 08:23:06;;;;;;;1.65;0.80;;;;;;;;;;5061780;28;20329;-77
2023/07/14 08:25:33;;;;;;;1.50;0.88;;;;;;;;;;5062226;28;20300;-76
2023/07/14 08:28:04;;;;;;;1.38;1.00;;;;;;;;;;5062379;28;20099;-76
2023/07/14 08:30:33;;;;;;;1.58;0.82;;;;;;;;;;5066390;28;20066;-78
2023/07/14 08:33:03;;;;;;;1.77;0.82;;;;;;;;;;5076130;28;20108;-78
2023/07/14 08:35:29;;;;;;;1.05;0.70;;;;;;;;;;5064915;28;20122;-76
2023/07/14 08:37:56;;;;;;;1.92;0.80;;;;;;;;;;5063693;28;20087;-77
2023/07/14 08:40:31;;;;;;;1.50;0.73;;;;;;;;;;5080092;28;20044;-76
2023/07/14 08:43:27;;;;;;;1.45;0.80;;;;;;;;;;5077292;28;20052;-75
2023/07/14 08:46:08;;;;;;;1.40;0.82;;;;;;;;;;5075658;28;20048;-77
2023/07/14 08:48:45;;;;;;;1.60;0.90;;;;;;;;;;5078867;28;20052;-76
2023/07/14 08:51:19;;;;;;;3.35;0.80;;;;;;;;;;5078901;28;20060;-76
2023/07/14 08:53:55;;;;;;;1.10;0.82;;;;;;;;;;5079221;28;20103;-77
2023/07/14 08:56:24;;;;;;;1.30;0.82;;;;;;;;;;5069899;28;20075;-75
2023/07/14 08:58:52;;;;;;;1.00;0.80;;;;;;;;;;5073673;28;20116;-75
2023/07/14 09:01:34;;;;;;;0.93;0.70;;;;;;;;;;5079133;28;20079;-75
2023/07/14 09:04:22;;;;;;;1.35;0.93;;;;;;;;;;5078662;28;20068;-78
2023/07/14 09:06:48;;;;;;;0.93;0.50;;;;;;;;;;5076105;28;20080;-75
2023/07/14 09:09:31;;;;;;;1.52;0.68;;;;;;;;;;5078756;28;20052;-75
2023/07/14 09:12:28;;;;;;;0.80;0.65;;;;;;;;;;5078205;28;20048;-76
2023/07/14 09:15:00;;;;;;;0.95;0.65;;;;;;;;;;5076776;28;20087;-75
2023/07/14 09:17:49;;;;;;;1.35;0.73;;;;;;;;;;5079255;28;20336;-75
2023/07/14 09:20:19;;;;;;;1.30;0.70;;;;;;;;;;5079243;28;20044;-76
2023/07/14 09:23:00;;;;;;;1.33;0.77;;;;;;;;;;5077778;28;20052;-76
2023/07/14 09:25:45;;;;;;;1.70;0.80;;;;;;;;;;5077933;28;20067;-75
2023/07/14 09:28:19;;;;;;;0.88;0.70;;;;;;;;;;5074990;28;20080;-76
2023/07/14 09:30:47;;;;;;;3.67;0.90;;;;;;;;;;5073337;28;20052;-75
2023/07/14 09:33:18;;;;;;;1.27;0.80;;;;;;;;;;5073545;28;20249;-76
2023/07/14 09:35:46;;;;;;;2.35;0.93;;;;;;;;;;5072877;28;20060;-76
2023/07/14 09:38:40;;;;;;;0.98;0.80;;;;;;;;;;5072368;28;20053;-75
2023/07/14 09:41:14;;;;;;;1.40;0.88;;;;;;;;;;5074186;28;20049;-76
2023/07/14 09:43:41;;;;;;;1.40;0.80;;;;;;;;;;5072808;28;20824;-76
2023/07/14 09:46:09;;;;;;;1.85;0.80;;;;;;;;;;5073030;28;20059;-77
2023/07/14 09:48:43;;;;;;;1.77;1.00;;;;;;;;;;5069911;28;20071;-76
2023/07/14 09:51:29;;;;;;;0.85;0.63;;;;;;;;;;5076636;28;20079;-81
2023/07/14 09:54:16;;;;;;;0.90;0.70;;;;;;;;;;5079437;28;20245;-77
2023/07/14 09:56:44;;;;;;;2.08;1.00;;;;;;;;;;5080117;28;20276;-76
2023/07/14 09:59:19;;;;;;;1.65;0.80;;;;;;;;;;5079890;28;20045;-78
2023/07/14 10:01:52;;;;;;;1.35;0.80;;;;;;;;;;5080147;28;20044;-78
2023/07/14 10:04:19;;;;;;;1.73;1.13;;;;;;;;;;5080518;28;20355;-76
2023/07/14 10:06:49;;;;;;;1.33;0.80;;;;;;;;;;5080267;28;20283;-81
2023/07/14 10:09:20;;;;;;;0.68;0.60;;;;;;;;;;5080649;28;20371;-78
2023/07/14 10:11:52;;;;;;;1.85;0.80;;;;;;;;;;5080447;28;20044;-80
2023/07/14 10:14:35;;;;;;;2.13;0.90;;;;;;;;;;5079630;28;20075;-77
2023/07/14 10:17:04;;;;;;;1.40;0.88;;;;;;;;;;5079817;28;20052;-73
2023/07/14 10:19:38;;;;;;;2.85;1.10;;;;;;;;;;5080949;28;20090;-75
2023/07/14 10:22:17;;;;;;;1.23;0.85;;;;;;;;;;5079152;28;20255;-73
2023/07/14 10:24:46;;;;;;;1.80;0.90;;;;;;;;;;5080647;28;20056;-73
2023/07/14 10:27:25;;;;;;;0.90;0.70;;;;;;;;;;5080322;28;20060;-73
2023/07/14 10:29:58;;;;;;;1.05;0.77;;;;;;;;;;5080925;28;20596;-72
2023/07/14 10:32:32;;;;;;;1.15;0.70;;;;;;;;;;5080419;28;20367;-73
2023/07/14 10:35:35;;;;;;;1.33;0.73;;;;;;;;;;5069577;28;20045;-72
2023/07/14 10:38:19;;;;;;;1.25;0.80;;;;;;;;;;5054719;28;20048;-72
2023/07/14 10:40:55;;;;;;;1.75;0.70;;;;;;;;;;5079930;28;20051;-72
2023/07/14 10:43:25;;;;;;;1.40;0.70;;;;;;;;;;5080051;28;20107;-72
2023/07/14 10:46:10;;;;;;;1.65;0.82;;;;;;;;;;5079990;28;20260;-72
2023/07/14 10:48:43;;;;;;;1.67;0.80;;;;;;;;;;5080336;28;20115;-71
2023/07/14 10:51:20;;;;;;;3.15;1.02;;;;;;;;;;5071526;28;20116;-71
2023/07/14 10:53:55;;;;;;;1.30;0.88;;;;;;;;;;5059818;28;20112;-73
2023/07/14 10:56:31;;;;;;;1.30;0.80;;;;;;;;;;5060005;28;20267;-70
2023/07/14 10:59:04;;;;;;;1.02;0.80;;;;;;;;;;5059880;28;20049;-71
2023/07/14 11:01:38;;;;;;;2.67;1.00;;;;;;;;;;5077389;28;20045;-70
2023/07/14 11:04:24;;;;;;;2.83;0.80;;;;;;;;;;5080029;28;20056;-71
2023/07/14 11:06:53;;;;;;;1.98;0.80;;;;;;;;;;5079941;28;20060;-71
2023/07/14 11:09:24;;;;;;;2.90;1.00;;;;;;;;;;5079493;28;20213;-72
2023/07/14 11:11:57;;;;;;;1.33;0.75;;;;;;;;;;5080183;28;20323;-72
2023/07/14 11:14:30;;;;;;;0.90;0.73;;;;;;;;;;5080214;28;20051;-72
2023/07/14 11:17:05;;;;;;;2.42;1.00;;;;;;;;;;5079946;28;20051;-73
2023/07/14 11:19:52;;;;;;;2.03;1.05;;;;;;;;;;5079951;28;20084;-73
2023/07/14 11:22:33;;;;;;;1.92;0.80;;;;;;;;;;5068390;28;20044;-71
2023/07/14 11:25:14;;;;;;;1.42;0.98;;;;;;;;;;5079289;28;20080;-71
2023/07/14 11:28:01;;;;;;;1.55;0.77;;;;;;;;;;5079568;28;20363;-72
2023/07/14 11:30:39;;;;;;;2.25;1.00;;;;;;;;;;5077734;28;20353;-72
2023/07/14 11:33:32;;;;;;;1.20;0.70;;;;;;;;;;5082527;28;20068;-72
2023/07/14 11:36:03;;;;;;;1.83;0.90;;;;;;;;;;5063274;28;20053;-72
2023/07/14 11:38:40;;;;;;;1.92;0.85;;;;;;;;;;5061494;28;20051;-71
2023/07/14 11:41:07;;;;;;;2.05;1.08;;;;;;;;;;5068908;28;20049;-80
2023/07/14 11:43:35;;;;;;;3.88;0.90;;;;;;;;;;5080435;28;20367;-71
2023/07/14 11:46:04;;;;;;;0.95;0.80;;;;;;;;;;5079743;28;20140;-71
2023/07/14 11:48:43;;;;;;;1.92;0.90;;;;;;;;;;5076844;28;20045;-70
2023/07/14 11:51:12;;;;;;;2.47;0.90;;;;;;;;;;5076407;28;20052;-72
2023/07/14 11:54:00;;;;;;;1.13;0.70;;;;;;;;;;5076138;28;20076;-70
2023/07/14 11:56:29;;;;;;;1.40;0.80;;;;;;;;;;5078216;28;20041;-71
2023/07/14 11:59:23;;;;;;;0.90;0.77;;;;;;;;;;5078540;28;20067;-71
2023/07/14 12:01:53;;;;;;;0.88;0.70;;;;;;;;;;5075831;28;20055;-73
2023/07/14 12:04:34;;;;;;;1.67;0.90;;;;;;;;;;5074868;28;20044;-71
2023/07/14 12:07:16;;;;;;;1.20;0.90;;;;;;;;;;5076861;28;20080;-72
2023/07/14 12:10:15;;;;;;;1.02;0.73;;;;;;;;;;5074187;28;20071;-70
2023/07/14 12:13:16;;;;;;;1.63;1.00;;;;;;;;;;5077340;28;20123;-71
2023/07/14 12:15:46;;;;;;;1.55;1.02;;;;;;;;;;5076998;28;20443;-71
2023/07/14 12:18:33;;;;;;;1.77;0.88;;;;;;;;;;5074445;28;20056;-71
2023/07/14 12:21:14;;;;;;;1.23;0.80;;;;;;;;;;5076401;28;20115;-71
2023/07/14 12:23:52;;;;;;;1.60;0.85;;;;;;;;;;5063463;28;20048;-71
2023/07/14 12:26:35;;;;;;;1.40;0.90;;;;;;;;;;5074192;28;20124;-71
2023/07/14 12:29:21;;;;;;;1.20;0.70;;;;;;;;;;5074713;28;20056;-70
2023/07/14 12:31:55;;;;;;;2.05;0.80;;;;;;;;;;5075044;28;20098;-71
2023/07/14 12:34:27;;;;;;;1.25;0.90;;;;;;;;;;5076204;28;20124;-70
2023/07/14 12:36:53;;;;;;;1.55;1.00;;;;;;;;;;5075324;28;20056;-70
2023/07/14 12:39:20;;;;;;;1.70;0.98;;;;;;;;;;5075352;28;20139;-75
2023/07/14 12:41:51;;;;;;;0.98;0.88;;;;;;;;;;5075855;28;20435;-71
2023/07/14 12:44:35;;;;;;;2.47;0.80;;;;;;;;;;5073257;28;20251;-73
2023/07/14 12:47:02;;;;;;;3.40;1.10;;;;;;;;;;5077025;28;20057;-76
2023/07/14 12:49:36;;;;;;;1.85;0.93;;;;;;;;;;5074030;28;20048;-73
2023/07/14 12:52:06;;;;;;;1.63;0.80;;;;;;;;;;5074836;28;20479;-77
2023/07/14 12:54:33;;;;;;;2.05;1.08;;;;;;;;;;5074358;28;20052;-75
2023/07/14 12:57:01;;;;;;;2.10;0.90;;;;;;;;;;5075107;28;20044;-73
2023/07/14 12:59:29;;;;;;;1.20;0.88;;;;;;;;;;5075503;28;20045;-76
2023/07/14 13:01:56;;;;;;;0.98;0.80;;;;;;;;;;5075228;28;20115;-75
2023/07/14 13:04:23;;;;;;;1.02;0.88;;;;;;;;;;5075812;28;20084;-75
2023/07/14 13:07:01;;;;;;;1.40;0.77;;;;;;;;;;5075132;28;20074;-72
2023/07/14 13:09:29;;;;;;;1.02;0.75;;;;;;;;;;5075136;28;20052;-76
2023/07/14 13:11:56;;;;;;;1.52;0.85;;;;;;;;;;5076025;28;20052;-73
2023/07/14 13:14:28;;;;;;;1.33;0.75;;;;;;;;;;5076230;28;20308;-77
2023/07/14 13:16:55;;;;;;;3.70;1.00;;;;;;;;;;5075599;28;20044;-72
2023/07/14 13:19:22;;;;;;;1.55;0.80;;;;;;;;;;5075256;28;20036;-85
2023/07/14 13:21:50;;;;;;;1.70;0.98;;;;;;;;;;5074887;28;20115;-71
2023/07/14 13:24:25;;;;;;;1.63;0.80;;;;;;;;;;5074520;28;20055;-81
2023/07/14 13:26:54;;;;;;;1.60;0.75;;;;;;;;;;5074245;28;20301;-73
2023/07/14 13:29:27;;;;;;;1.33;0.80;;;;;;;;;;5074351;28;20056;-75
2023/07/14 13:31:58;;;;;;;1.05;0.80;;;;;;;;;;5073275;28;20388;-82
2023/07/14 13:34:31;;;;;;;2.10;0.70;;;;;;;;;;5075166;28;20077;-83
2023/07/14 13:37:03;;;;;;;2.63;1.20;;;;;;;;;;5074053;28;20045;-78
2023/07/14 13:39:36;;;;;;;2.05;0.80;;;;;;;;;;5074188;28;20052;-79
2023/07/14 13:42:07;;;;;;;1.52;0.90;;;;;;;;;;5075017;28;20084;-78
2023/07/14 13:44:44;;;;;;;1.80;0.85;;;;;;;;;;5074182;28;20135;-75
2023/07/14 13:47:26;;;;;;;1.63;1.00;;;;;;;;;;5074620;28;20084;-79
2023/07/14 13:49:56;;;;;;;1.80;1.00;;;;;;;;;;5071097;28;20375;-72
2023/07/14 13:52:33;;;;;;;1.15;0.70;;;;;;;;;;5074660;28;20063;-71
2023/07/14 13:55:03;;;;;;;1.25;0.80;;;;;;;;;;5075314;28;20071;-71
2023/07/14 13:57:31;;;;;;;2.70;0.80;;;;;;;;;;5075882;28;20055;-71
2023/07/14 13:59:58;;;;;;;2.55;0.90;;;;;;;;;;5074981;28;20056;-72
2023/07/14 14:02:40;;;;;;;1.35;0.95;;;;;;;;;;5076896;28;20381;-71
2023/07/14 14:05:15;;;;;;;1.58;0.90;;;;;;;;;;5078509;28;20045;-71
2023/07/14 14:07:41;;;;;;;0.77;0.73;;;;;;;;;;5077120;28;20052;-71
2023/07/14 14:10:14;;;;;;;1.30;0.90;;;;;;;;;;5077812;28;20045;-71
2023/07/14 14:12:41;;;;;;;1.38;1.08;;;;;;;;;;5078093;28;20050;-72
2023/07/14 14:15:13;;;;;;;1.20;0.80;;;;;;;;;;5072623;28;20049;-71
2023/07/14 14:17:41;;;;;;;1.00;0.80;;;;;;;;;;5078330;28;20045;-71
2023/07/14 14:20:22;;;;;;;2.10;1.08;;;;;;;;;;5057023;28;20048;-71
2023/07/14 14:22:49;;;;;;;1.63;0.90;;;;;;;;;;5076199;28;20329;-72
2023/07/14 14:25:21;;;;;;;1.10;0.90;;;;;;;;;;5073711;28;20115;-71
2023/07/14 14:27:51;;;;;;;1.42;0.93;;;;;;;;;;5072908;28;20116;-70
2023/07/14 14:30:20;;;;;;;0.67;0.67;;;;;;;;;;5076769;28;20072;-71
2023/07/14 14:32:49;;;;;;;0.88;0.75;;;;;;;;;;5076071;28;20059;-71
2023/07/14 14:35:24;;;;;;;1.20;0.90;;;;;;;;;;5076370;28;20084;-72
2023/07/14 14:37:52;;;;;;;1.85;0.93;;;;;;;;;;5074921;28;20993;-71
2023/07/14 14:40:18;;;;;;;1.65;0.90;;;;;;;;;;5075533;28;20048;-71
2023/07/14 14:42:45;;;;;;;1.60;1.00;;;;;;;;;;5077253;28;20052;-71
2023/07/14 14:45:24;;;;;;;1.35;0.90;;;;;;;;;;5078575;28;20060;-71
2023/07/14 14:47:51;;;;;;;2.55;0.90;;;;;;;;;;5078257;28;20344;-71
2023/07/14 14:50:20;;;;;;;1.90;1.08;;;;;;;;;;5078718;28;20044;-72
2023/07/14 14:52:48;;;;;;;1.88;1.00;;;;;;;;;;5078529;28;20048;-74
2023/07/14 14:55:16;;;;;;;3.88;1.02;;;;;;;;;;5077802;28;20052;-70
2023/07/14 14:57:46;;;;;;;1.55;1.00;;;;;;;;;;5077363;28;20047;-71
2023/07/14 15:00:18;;;;;;;1.83;0.90;;;;;;;;;;5079469;28;20115;-72
2023/07/14 15:02:46;;;;;;;2.75;0.95;;;;;;;;;;5079672;28;20070;-71
2023/07/14 15:05:15;;;;;;;1.50;1.00;;;;;;;;;;5079446;28;20482;-71
2023/07/14 15:07:43;;;;;;;;;;;;;;;;;;5080938;28;20075;-71
2023/07/14 15:10:10;;;;;;;1.35;1.00;;;;;;;;;;5082901;28;19931;-72